sensor_id;sensor_type;location;lat;lon;timestamp;P1;durP1;ratioP1;P2;durP2;ratioP2
13331;SDS011;6735;51.456;12.626;2024-03-06T00:01:32;17.10;;;11.97;;
13331;SDS011;6735;51.456;12.626;2024-03-06T00:03:59;15.40;;;10.97;;
13331;SDS011;6735;51.456;12.626;2024-03-06T00:06:24;15.43;;;11.47;;
13331;SDS011;6735;51.456;12.626;2024-03-06T00:08:50;17.93;;;11.60;;
13331;SDS011;6735;51.456;12.626;2024-03-06T00:11:16;15.13;;;10.93;;
13331;SDS011;6735;51.456;12.626;2024-03-06T00:13:42;15.90;;;11.00;;
13331;SDS011;6735;51.456;12.626;2024-03-06T00:16:08;15.47;;;11.43;;
13331;SDS011;6735;51.456;12.626;2024-03-06T00:18:34;14.90;;;11.03;;
13331;SDS011;6735;51.456;12.626;2024-03-06T00:20:59;16.53;;;11.53;;
13331;SDS011;6735;51.456;12.626;2024-03-06T00:23:25;18.63;;;12.10;;
13331;SDS011;6735;51.456;12.626;2024-03-06T00:25:51;14.50;;;10.90;;
13331;SDS011;6735;51.456;12.626;2024-03-06T00:28:16;14.43;;;11.07;;
13331;SDS011;6735;51.456;12.626;2024-03-06T00:30:42;15.87;;;11.03;;
13331;SDS011;6735;51.456;12.626;2024-03-06T00:33:07;17.60;;;11.43;;
13331;SDS011;6735;51.456;12.626;2024-03-06T00:35:33;21.03;;;12.73;;
13331;SDS011;6735;51.456;12.626;2024-03-06T00:37:58;15.73;;;11.57;;
13331;SDS011;6735;51.456;12.626;2024-03-06T00:40:27;18.13;;;11.47;;
13331;SDS011;6735;51.456;12.626;2024-03-06T00:42:55;15.67;;;10.50;;
13331;SDS011;6735;51.456;12.626;2024-03-06T00:45:21;17.13;;;11.13;;
13331;SDS011;6735;51.456;12.626;2024-03-06T00:47:47;18.30;;;12.40;;
13331;SDS011;6735;51.456;12.626;2024-03-06T00:50:12;16.40;;;11.60;;
13331;SDS011;6735;51.456;12.626;2024-03-06T00:52:38;18.00;;;11.93;;
13331;SDS011;6735;51.456;12.626;2024-03-06T00:55:04;19.20;;;12.37;;
13331;SDS011;6735;51.456;12.626;2024-03-06T00:57:30;19.97;;;11.97;;
13331;SDS011;6735;51.456;12.626;2024-03-06T00:59:55;16.70;;;12.07;;
13331;SDS011;6735;51.456;12.626;2024-03-06T01:02:21;23.33;;;11.90;;
13331;SDS011;6735;51.456;12.626;2024-03-06T01:04:46;19.27;;;12.20;;
13331;SDS011;6735;51.456;12.626;2024-03-06T01:07:12;19.40;;;12.43;;
13331;SDS011;6735;51.456;12.626;2024-03-06T01:09:37;18.57;;;12.33;;
13331;SDS011;6735;51.456;12.626;2024-03-06T01:12:03;21.07;;;11.90;;
13331;SDS011;6735;51.456;12.626;2024-03-06T01:14:30;23.37;;;13.27;;
13331;SDS011;6735;51.456;12.626;2024-03-06T01:16:56;22.50;;;12.80;;
13331;SDS011;6735;51.456;12.626;2024-03-06T01:19:21;18.43;;;12.77;;
13331;SDS011;6735;51.456;12.626;2024-03-06T01:21:47;19.60;;;11.93;;
13331;SDS011;6735;51.456;12.626;2024-03-06T01:24:13;18.77;;;12.33;;
13331;SDS011;6735;51.456;12.626;2024-03-06T01:26:39;17.80;;;11.40;;
13331;SDS011;6735;51.456;12.626;2024-03-06T01:29:05;17.50;;;11.27;;
13331;SDS011;6735;51.456;12.626;2024-03-06T01:31:31;16.83;;;11.50;;
13331;SDS011;6735;51.456;12.626;2024-03-06T01:33:56;16.97;;;11.87;;
13331;SDS011;6735;51.456;12.626;2024-03-06T01:36:22;16.97;;;12.07;;
13331;SDS011;6735;51.456;12.626;2024-03-06T01:38:47;19.43;;;12.03;;
13331;SDS011;6735;51.456;12.626;2024-03-06T01:41:14;17.93;;;11.93;;
13331;SDS011;6735;51.456;12.626;2024-03-06T01:43:39;21.80;;;13.17;;
13331;SDS011;6735;51.456;12.626;2024-03-06T01:46:05;19.63;;;13.00;;
13331;SDS011;6735;51.456;12.626;2024-03-06T01:48:31;22.50;;;13.60;;
13331;SDS011;6735;51.456;12.626;2024-03-06T01:50:59;22.03;;;12.67;;
13331;SDS011;6735;51.456;12.626;2024-03-06T01:53:27;22.07;;;13.17;;
13331;SDS011;6735;51.456;12.626;2024-03-06T01:55:55;21.53;;;12.43;;
13331;SDS011;6735;51.456;12.626;2024-03-06T01:58:21;18.37;;;11.93;;
13331;SDS011;6735;51.456;12.626;2024-03-06T02:00:49;19.30;;;12.90;;
13331;SDS011;6735;51.456;12.626;2024-03-06T02:03:15;19.40;;;12.60;;
13331;SDS011;6735;51.456;12.626;2024-03-06T02:05:40;21.13;;;13.10;;
13331;SDS011;6735;51.456;12.626;2024-03-06T02:08:07;22.30;;;13.03;;
13331;SDS011;6735;51.456;12.626;2024-03-06T02:10:32;21.23;;;12.33;;
13331;SDS011;6735;51.456;12.626;2024-03-06T02:12:59;24.17;;;14.43;;
13331;SDS011;6735;51.456;12.626;2024-03-06T02:15:24;20.83;;;13.40;;
13331;SDS011;6735;51.456;12.626;2024-03-06T02:17:50;21.20;;;13.30;;
13331;SDS011;6735;51.456;12.626;2024-03-06T02:20:20;20.90;;;12.87;;
13331;SDS011;6735;51.456;12.626;2024-03-06T02:22:49;21.53;;;12.87;;
13331;SDS011;6735;51.456;12.626;2024-03-06T02:25:15;20.40;;;12.87;;
13331;SDS011;6735;51.456;12.626;2024-03-06T02:27:41;20.77;;;14.33;;
13331;SDS011;6735;51.456;12.626;2024-03-06T02:30:08;20.93;;;12.67;;
13331;SDS011;6735;51.456;12.626;2024-03-06T02:32:34;24.47;;;13.67;;
13331;SDS011;6735;51.456;12.626;2024-03-06T02:35:00;21.60;;;13.50;;
13331;SDS011;6735;51.456;12.626;2024-03-06T02:37:28;24.40;;;13.80;;
13331;SDS011;6735;51.456;12.626;2024-03-06T02:39:53;23.30;;;14.23;;
13331;SDS011;6735;51.456;12.626;2024-03-06T02:42:19;23.07;;;13.67;;
13331;SDS011;6735;51.456;12.626;2024-03-06T02:44:45;21.77;;;13.50;;
13331;SDS011;6735;51.456;12.626;2024-03-06T02:47:10;21.63;;;13.50;;
13331;SDS011;6735;51.456;12.626;2024-03-06T02:49:36;20.30;;;13.00;;
13331;SDS011;6735;51.456;12.626;2024-03-06T02:52:01;22.67;;;14.07;;
13331;SDS011;6735;51.456;12.626;2024-03-06T02:54:27;20.13;;;12.70;;
13331;SDS011;6735;51.456;12.626;2024-03-06T02:56:52;17.90;;;11.83;;
13331;SDS011;6735;51.456;12.626;2024-03-06T02:59:18;18.97;;;12.37;;
13331;SDS011;6735;51.456;12.626;2024-03-06T03:01:43;22.20;;;13.17;;
13331;SDS011;6735;51.456;12.626;2024-03-06T03:04:09;24.23;;;13.60;;
13331;SDS011;6735;51.456;12.626;2024-03-06T03:06:35;22.50;;;14.17;;
13331;SDS011;6735;51.456;12.626;2024-03-06T03:09:00;19.50;;;13.10;;
13331;SDS011;6735;51.456;12.626;2024-03-06T03:11:26;22.00;;;13.23;;
13331;SDS011;6735;51.456;12.626;2024-03-06T03:13:52;22.13;;;13.80;;
13331;SDS011;6735;51.456;12.626;2024-03-06T03:16:17;23.03;;;12.90;;
13331;SDS011;6735;51.456;12.626;2024-03-06T03:18:44;24.63;;;14.23;;
13331;SDS011;6735;51.456;12.626;2024-03-06T03:21:10;22.27;;;13.87;;
13331;SDS011;6735;51.456;12.626;2024-03-06T03:23:36;24.07;;;14.30;;
13331;SDS011;6735;51.456;12.626;2024-03-06T03:26:02;23.80;;;13.30;;
13331;SDS011;6735;51.456;12.626;2024-03-06T03:28:28;21.57;;;13.40;;
13331;SDS011;6735;51.456;12.626;2024-03-06T03:30:54;23.87;;;13.30;;
13331;SDS011;6735;51.456;12.626;2024-03-06T03:33:21;23.13;;;13.63;;
13331;SDS011;6735;51.456;12.626;2024-03-06T03:35:47;28.17;;;15.23;;
13331;SDS011;6735;51.456;12.626;2024-03-06T03:38:13;24.30;;;14.30;;
13331;SDS011;6735;51.456;12.626;2024-03-06T03:40:38;23.60;;;14.77;;
13331;SDS011;6735;51.456;12.626;2024-03-06T03:43:04;23.10;;;14.07;;
13331;SDS011;6735;51.456;12.626;2024-03-06T03:45:31;23.33;;;13.53;;
13331;SDS011;6735;51.456;12.626;2024-03-06T03:48:04;21.23;;;13.23;;
13331;SDS011;6735;51.456;12.626;2024-03-06T03:50:30;20.80;;;14.13;;
13331;SDS011;6735;51.456;12.626;2024-03-06T03:52:56;24.77;;;14.07;;
13331;SDS011;6735;51.456;12.626;2024-03-06T03:55:23;27.50;;;13.23;;
13331;SDS011;6735;51.456;12.626;2024-03-06T03:57:51;24.13;;;13.80;;
13331;SDS011;6735;51.456;12.626;2024-03-06T04:00:17;24.17;;;13.33;;
13331;SDS011;6735;51.456;12.626;2024-03-06T04:02:43;22.13;;;13.50;;
13331;SDS011;6735;51.456;12.626;2024-03-06T04:05:09;24.93;;;13.67;;
13331;SDS011;6735;51.456;12.626;2024-03-06T04:07:35;18.77;;;13.13;;
13331;SDS011;6735;51.456;12.626;2024-03-06T04:10:01;24.27;;;13.97;;
13331;SDS011;6735;51.456;12.626;2024-03-06T04:12:27;24.87;;;14.43;;
13331;SDS011;6735;51.456;12.626;2024-03-06T04:14:53;21.70;;;12.87;;
13331;SDS011;6735;51.456;12.626;2024-03-06T04:17:18;21.50;;;13.23;;
13331;SDS011;6735;51.456;12.626;2024-03-06T04:19:44;25.73;;;13.70;;
13331;SDS011;6735;51.456;12.626;2024-03-06T04:22:10;20.30;;;13.07;;
13331;SDS011;6735;51.456;12.626;2024-03-06T04:24:35;23.13;;;13.60;;
13331;SDS011;6735;51.456;12.626;2024-03-06T04:27:01;24.27;;;14.17;;
13331;SDS011;6735;51.456;12.626;2024-03-06T04:29:26;22.67;;;13.50;;
13331;SDS011;6735;51.456;12.626;2024-03-06T04:31:52;21.03;;;13.37;;
13331;SDS011;6735;51.456;12.626;2024-03-06T04:34:17;26.17;;;13.93;;
13331;SDS011;6735;51.456;12.626;2024-03-06T04:36:44;28.53;;;15.80;;
13331;SDS011;6735;51.456;12.626;2024-03-06T04:39:10;24.67;;;15.27;;
13331;SDS011;6735;51.456;12.626;2024-03-06T04:41:37;24.70;;;14.20;;
13331;SDS011;6735;51.456;12.626;2024-03-06T04:44:02;20.77;;;13.07;;
13331;SDS011;6735;51.456;12.626;2024-03-06T04:46:28;23.13;;;13.97;;
13331;SDS011;6735;51.456;12.626;2024-03-06T04:48:53;21.93;;;13.97;;
13331;SDS011;6735;51.456;12.626;2024-03-06T04:51:19;28.60;;;16.33;;
13331;SDS011;6735;51.456;12.626;2024-03-06T04:53:44;25.43;;;15.23;;
13331;SDS011;6735;51.456;12.626;2024-03-06T04:56:10;24.53;;;15.10;;
13331;SDS011;6735;51.456;12.626;2024-03-06T04:58:36;24.00;;;14.23;;
13331;SDS011;6735;51.456;12.626;2024-03-06T05:01:01;22.57;;;13.03;;
13331;SDS011;6735;51.456;12.626;2024-03-06T05:03:28;27.87;;;15.00;;
13331;SDS011;6735;51.456;12.626;2024-03-06T05:05:54;26.80;;;14.67;;
13331;SDS011;6735;51.456;12.626;2024-03-06T05:08:19;26.60;;;15.00;;
13331;SDS011;6735;51.456;12.626;2024-03-06T05:10:45;23.17;;;14.73;;
13331;SDS011;6735;51.456;12.626;2024-03-06T05:13:11;25.53;;;14.97;;
13331;SDS011;6735;51.456;12.626;2024-03-06T05:15:36;26.87;;;15.30;;
13331;SDS011;6735;51.456;12.626;2024-03-06T05:18:02;24.83;;;15.30;;
13331;SDS011;6735;51.456;12.626;2024-03-06T05:20:28;24.37;;;14.67;;
13331;SDS011;6735;51.456;12.626;2024-03-06T05:22:55;23.63;;;15.03;;
13331;SDS011;6735;51.456;12.626;2024-03-06T05:25:21;22.33;;;14.43;;
13331;SDS011;6735;51.456;12.626;2024-03-06T05:27:46;24.33;;;14.27;;
13331;SDS011;6735;51.456;12.626;2024-03-06T05:30:12;27.00;;;15.47;;
13331;SDS011;6735;51.456;12.626;2024-03-06T05:32:37;26.83;;;14.50;;
13331;SDS011;6735;51.456;12.626;2024-03-06T05:35:03;23.10;;;14.10;;
13331;SDS011;6735;51.456;12.626;2024-03-06T05:37:29;25.77;;;14.93;;
13331;SDS011;6735;51.456;12.626;2024-03-06T05:39:54;22.20;;;14.00;;
13331;SDS011;6735;51.456;12.626;2024-03-06T05:42:20;27.60;;;15.33;;
13331;SDS011;6735;51.456;12.626;2024-03-06T05:44:45;25.93;;;14.67;;
13331;SDS011;6735;51.456;12.626;2024-03-06T05:47:13;28.43;;;16.03;;
13331;SDS011;6735;51.456;12.626;2024-03-06T05:49:39;27.70;;;16.03;;
13331;SDS011;6735;51.456;12.626;2024-03-06T05:52:04;26.97;;;15.23;;
13331;SDS011;6735;51.456;12.626;2024-03-06T05:54:29;25.67;;;15.30;;
13331;SDS011;6735;51.456;12.626;2024-03-06T05:56:58;24.70;;;14.43;;
13331;SDS011;6735;51.456;12.626;2024-03-06T05:59:24;24.90;;;16.03;;
13331;SDS011;6735;51.456;12.626;2024-03-06T06:01:49;28.80;;;15.63;;
13331;SDS011;6735;51.456;12.626;2024-03-06T06:04:15;25.40;;;15.17;;
13331;SDS011;6735;51.456;12.626;2024-03-06T06:06:40;25.30;;;14.83;;
13331;SDS011;6735;51.456;12.626;2024-03-06T06:09:06;24.27;;;15.43;;
13331;SDS011;6735;51.456;12.626;2024-03-06T06:11:32;27.03;;;16.13;;
13331;SDS011;6735;51.456;12.626;2024-03-06T06:14:01;27.03;;;15.83;;
13331;SDS011;6735;51.456;12.626;2024-03-06T06:16:27;29.63;;;16.57;;
13331;SDS011;6735;51.456;12.626;2024-03-06T06:18:59;27.83;;;16.47;;
13331;SDS011;6735;51.456;12.626;2024-03-06T06:21:24;29.03;;;16.10;;
13331;SDS011;6735;51.456;12.626;2024-03-06T06:23:50;29.73;;;16.40;;
13331;SDS011;6735;51.456;12.626;2024-03-06T06:26:15;31.37;;;16.93;;
13331;SDS011;6735;51.456;12.626;2024-03-06T06:28:41;27.90;;;16.47;;
13331;SDS011;6735;51.456;12.626;2024-03-06T06:31:07;31.07;;;16.33;;
13331;SDS011;6735;51.456;12.626;2024-03-06T06:33:32;33.43;;;16.70;;
13331;SDS011;6735;51.456;12.626;2024-03-06T06:35:58;29.13;;;16.60;;
13331;SDS011;6735;51.456;12.626;2024-03-06T06:38:24;29.57;;;16.83;;
13331;SDS011;6735;51.456;12.626;2024-03-06T06:40:49;34.03;;;17.20;;
13331;SDS011;6735;51.456;12.626;2024-03-06T06:43:15;34.60;;;18.47;;
13331;SDS011;6735;51.456;12.626;2024-03-06T06:45:41;31.67;;;18.13;;
13331;SDS011;6735;51.456;12.626;2024-03-06T06:48:06;33.43;;;17.93;;
13331;SDS011;6735;51.456;12.626;2024-03-06T06:50:33;29.33;;;18.53;;
13331;SDS011;6735;51.456;12.626;2024-03-06T06:52:59;30.53;;;17.43;;
13331;SDS011;6735;51.456;12.626;2024-03-06T06:55:25;31.47;;;18.20;;
13331;SDS011;6735;51.456;12.626;2024-03-06T06:57:50;31.80;;;17.57;;
13331;SDS011;6735;51.456;12.626;2024-03-06T07:00:16;33.53;;;19.27;;
13331;SDS011;6735;51.456;12.626;2024-03-06T07:02:43;34.27;;;19.67;;
13331;SDS011;6735;51.456;12.626;2024-03-06T07:05:09;31.73;;;19.83;;
13331;SDS011;6735;51.456;12.626;2024-03-06T07:07:36;34.00;;;19.73;;
13331;SDS011;6735;51.456;12.626;2024-03-06T07:10:02;30.53;;;19.00;;
13331;SDS011;6735;51.456;12.626;2024-03-06T07:12:29;28.27;;;17.93;;
13331;SDS011;6735;51.456;12.626;2024-03-06T07:14:55;31.20;;;17.77;;
13331;SDS011;6735;51.456;12.626;2024-03-06T07:17:20;28.70;;;17.43;;
13331;SDS011;6735;51.456;12.626;2024-03-06T07:19:46;30.47;;;18.67;;
13331;SDS011;6735;51.456;12.626;2024-03-06T07:22:11;29.30;;;16.97;;
13331;SDS011;6735;51.456;12.626;2024-03-06T07:24:37;30.90;;;17.90;;
13331;SDS011;6735;51.456;12.626;2024-03-06T07:27:03;31.43;;;17.47;;
13331;SDS011;6735;51.456;12.626;2024-03-06T07:29:28;27.83;;;17.27;;
13331;SDS011;6735;51.456;12.626;2024-03-06T07:31:54;27.70;;;17.07;;
13331;SDS011;6735;51.456;12.626;2024-03-06T07:34:20;28.47;;;17.67;;
13331;SDS011;6735;51.456;12.626;2024-03-06T07:36:46;28.43;;;18.17;;
13331;SDS011;6735;51.456;12.626;2024-03-06T07:39:12;30.50;;;17.07;;
13331;SDS011;6735;51.456;12.626;2024-03-06T07:41:40;26.87;;;17.43;;
13331;SDS011;6735;51.456;12.626;2024-03-06T07:44:05;31.57;;;18.07;;
13331;SDS011;6735;51.456;12.626;2024-03-06T07:46:31;28.60;;;18.10;;
13331;SDS011;6735;51.456;12.626;2024-03-06T07:48:56;28.90;;;18.40;;
13331;SDS011;6735;51.456;12.626;2024-03-06T07:51:22;29.60;;;18.20;;
13331;SDS011;6735;51.456;12.626;2024-03-06T07:53:47;31.10;;;18.13;;
13331;SDS011;6735;51.456;12.626;2024-03-06T07:56:15;30.63;;;18.73;;
13331;SDS011;6735;51.456;12.626;2024-03-06T07:58:40;26.50;;;17.60;;
13331;SDS011;6735;51.456;12.626;2024-03-06T08:01:06;26.87;;;17.37;;
13331;SDS011;6735;51.456;12.626;2024-03-06T08:03:32;29.37;;;18.73;;
13331;SDS011;6735;51.456;12.626;2024-03-06T08:05:58;35.70;;;17.90;;
13331;SDS011;6735;51.456;12.626;2024-03-06T08:08:24;32.50;;;19.43;;
13331;SDS011;6735;51.456;12.626;2024-03-06T08:10:49;27.50;;;17.93;;
13331;SDS011;6735;51.456;12.626;2024-03-06T08:13:15;30.13;;;18.40;;
13331;SDS011;6735;51.456;12.626;2024-03-06T08:15:41;25.10;;;18.13;;
13331;SDS011;6735;51.456;12.626;2024-03-06T08:18:09;28.30;;;17.20;;
13331;SDS011;6735;51.456;12.626;2024-03-06T08:20:34;29.37;;;18.40;;
13331;SDS011;6735;51.456;12.626;2024-03-06T08:23:00;27.23;;;18.33;;
13331;SDS011;6735;51.456;12.626;2024-03-06T08:25:25;28.30;;;17.83;;
13331;SDS011;6735;51.456;12.626;2024-03-06T08:27:51;27.23;;;18.63;;
13331;SDS011;6735;51.456;12.626;2024-03-06T08:30:16;25.27;;;18.80;;
13331;SDS011;6735;51.456;12.626;2024-03-06T08:32:42;33.10;;;19.23;;
13331;SDS011;6735;51.456;12.626;2024-03-06T08:35:09;29.70;;;18.77;;
13331;SDS011;6735;51.456;12.626;2024-03-06T08:37:39;29.37;;;19.03;;
13331;SDS011;6735;51.456;12.626;2024-03-06T08:40:05;28.13;;;18.20;;
13331;SDS011;6735;51.456;12.626;2024-03-06T08:42:49;26.67;;;17.90;;
13331;SDS011;6735;51.456;12.626;2024-03-06T08:45:15;27.33;;;18.10;;
13331;SDS011;6735;51.456;12.626;2024-03-06T08:47:43;25.77;;;18.27;;
13331;SDS011;6735;51.456;12.626;2024-03-06T08:50:09;29.87;;;19.10;;
13331;SDS011;6735;51.456;12.626;2024-03-06T08:52:36;27.77;;;19.73;;
13331;SDS011;6735;51.456;12.626;2024-03-06T08:55:02;32.03;;;19.47;;
13331;SDS011;6735;51.456;12.626;2024-03-06T08:57:31;28.43;;;19.80;;
13331;SDS011;6735;51.456;12.626;2024-03-06T08:59:57;28.37;;;19.80;;
13331;SDS011;6735;51.456;12.626;2024-03-06T09:02:23;28.70;;;20.07;;
13331;SDS011;6735;51.456;12.626;2024-03-06T09:04:48;29.33;;;18.80;;
13331;SDS011;6735;51.456;12.626;2024-03-06T09:07:16;27.30;;;18.87;;
13331;SDS011;6735;51.456;12.626;2024-03-06T09:09:42;30.63;;;18.47;;
13331;SDS011;6735;51.456;12.626;2024-03-06T09:12:08;24.77;;;18.13;;
13331;SDS011;6735;51.456;12.626;2024-03-06T09:14:38;30.47;;;19.03;;
13331;SDS011;6735;51.456;12.626;2024-03-06T09:17:04;31.00;;;19.17;;
13331;SDS011;6735;51.456;12.626;2024-03-06T09:19:31;29.33;;;18.83;;
13331;SDS011;6735;51.456;12.626;2024-03-06T09:21:57;27.23;;;18.83;;
13331;SDS011;6735;51.456;12.626;2024-03-06T09:24:23;30.47;;;20.27;;
13331;SDS011;6735;51.456;12.626;2024-03-06T09:26:50;30.40;;;19.83;;
13331;SDS011;6735;51.456;12.626;2024-03-06T09:29:19;28.67;;;19.60;;
13331;SDS011;6735;51.456;12.626;2024-03-06T09:31:45;33.27;;;19.83;;
13331;SDS011;6735;51.456;12.626;2024-03-06T09:34:12;25.60;;;18.67;;
13331;SDS011;6735;51.456;12.626;2024-03-06T09:36:41;27.37;;;18.53;;
13331;SDS011;6735;51.456;12.626;2024-03-06T09:39:11;27.23;;;18.93;;
13331;SDS011;6735;51.456;12.626;2024-03-06T09:41:37;30.80;;;19.03;;
13331;SDS011;6735;51.456;12.626;2024-03-06T09:44:06;29.90;;;19.10;;
13331;SDS011;6735;51.456;12.626;2024-03-06T09:46:32;27.67;;;18.27;;
13331;SDS011;6735;51.456;12.626;2024-03-06T09:48:59;26.70;;;18.67;;
13331;SDS011;6735;51.456;12.626;2024-03-06T09:51:26;29.60;;;19.30;;
13331;SDS011;6735;51.456;12.626;2024-03-06T09:54:00;27.53;;;19.30;;
13331;SDS011;6735;51.456;12.626;2024-03-06T09:56:26;29.80;;;18.70;;
13331;SDS011;6735;51.456;12.626;2024-03-06T09:58:51;29.27;;;18.33;;
13331;SDS011;6735;51.456;12.626;2024-03-06T10:01:18;29.80;;;19.70;;
13331;SDS011;6735;51.456;12.626;2024-03-06T10:03:45;27.80;;;18.87;;
13331;SDS011;6735;51.456;12.626;2024-03-06T10:06:11;30.10;;;19.10;;
13331;SDS011;6735;51.456;12.626;2024-03-06T10:08:41;32.17;;;20.60;;
13331;SDS011;6735;51.456;12.626;2024-03-06T10:11:07;30.17;;;20.00;;
13331;SDS011;6735;51.456;12.626;2024-03-06T10:13:33;27.73;;;19.50;;
13331;SDS011;6735;51.456;12.626;2024-03-06T10:16:02;36.70;;;18.80;;
13331;SDS011;6735;51.456;12.626;2024-03-06T10:18:29;31.43;;;19.17;;
13331;SDS011;6735;51.456;12.626;2024-03-06T10:20:57;30.27;;;18.23;;
13331;SDS011;6735;51.456;12.626;2024-03-06T10:23:23;28.40;;;19.80;;
13331;SDS011;6735;51.456;12.626;2024-03-06T10:25:49;30.83;;;20.60;;
13331;SDS011;6735;51.456;12.626;2024-03-06T10:28:16;29.90;;;19.83;;
13331;SDS011;6735;51.456;12.626;2024-03-06T10:30:43;29.83;;;18.73;;
13331;SDS011;6735;51.456;12.626;2024-03-06T10:33:09;30.80;;;19.40;;
13331;SDS011;6735;51.456;12.626;2024-03-06T10:35:36;35.00;;;20.13;;
13331;SDS011;6735;51.456;12.626;2024-03-06T10:38:02;29.13;;;18.73;;
13331;SDS011;6735;51.456;12.626;2024-03-06T10:40:32;27.47;;;18.87;;
13331;SDS011;6735;51.456;12.626;2024-03-06T10:43:00;29.20;;;19.23;;
13331;SDS011;6735;51.456;12.626;2024-03-06T10:45:48;27.43;;;18.00;;
13331;SDS011;6735;51.456;12.626;2024-03-06T10:48:13;30.80;;;18.77;;
13331;SDS011;6735;51.456;12.626;2024-03-06T10:50:40;28.53;;;17.60;;
13331;SDS011;6735;51.456;12.626;2024-03-06T10:53:09;26.37;;;17.30;;
13331;SDS011;6735;51.456;12.626;2024-03-06T10:55:35;31.00;;;19.57;;
13331;SDS011;6735;51.456;12.626;2024-03-06T10:58:01;28.10;;;18.63;;
13331;SDS011;6735;51.456;12.626;2024-03-06T11:00:33;29.37;;;18.13;;
13331;SDS011;6735;51.456;12.626;2024-03-06T11:03:06;27.00;;;17.87;;
13331;SDS011;6735;51.456;12.626;2024-03-06T11:05:36;30.00;;;18.70;;
13331;SDS011;6735;51.456;12.626;2024-03-06T11:08:11;29.67;;;17.50;;
13331;SDS011;6735;51.456;12.626;2024-03-06T11:10:38;26.90;;;18.00;;
13331;SDS011;6735;51.456;12.626;2024-03-06T11:13:20;31.00;;;18.67;;
13331;SDS011;6735;51.456;12.626;2024-03-06T11:15:56;45.80;;;19.10;;
13331;SDS011;6735;51.456;12.626;2024-03-06T11:23:29;29.00;;;18.27;;
13331;SDS011;6735;51.456;12.626;2024-03-06T11:25:56;26.03;;;17.47;;
13331;SDS011;6735;51.456;12.626;2024-03-06T11:28:28;26.33;;;17.10;;
13331;SDS011;6735;51.456;12.626;2024-03-06T11:33:35;25.87;;;17.47;;
13331;SDS011;6735;51.456;12.626;2024-03-06T11:38:50;26.47;;;16.20;;
13331;SDS011;6735;51.456;12.626;2024-03-06T11:41:23;27.17;;;17.83;;
13331;SDS011;6735;51.456;12.626;2024-03-06T11:43:50;30.53;;;18.10;;
13331;SDS011;6735;51.456;12.626;2024-03-06T11:46:18;26.77;;;16.73;;
13331;SDS011;6735;51.456;12.626;2024-03-06T11:48:51;24.17;;;16.33;;
13331;SDS011;6735;51.456;12.626;2024-03-06T11:51:18;23.43;;;16.00;;
13331;SDS011;6735;51.456;12.626;2024-03-06T11:53:43;28.50;;;16.73;;
13331;SDS011;6735;51.456;12.626;2024-03-06T11:56:10;27.27;;;17.13;;
13331;SDS011;6735;51.456;12.626;2024-03-06T11:58:36;26.30;;;16.63;;
13331;SDS011;6735;51.456;12.626;2024-03-06T12:01:02;26.33;;;16.93;;
13331;SDS011;6735;51.456;12.626;2024-03-06T12:03:29;26.60;;;16.03;;
13331;SDS011;6735;51.456;12.626;2024-03-06T12:05:55;23.57;;;16.27;;
13331;SDS011;6735;51.456;12.626;2024-03-06T12:08:21;24.37;;;16.50;;
13331;SDS011;6735;51.456;12.626;2024-03-06T12:10:46;26.23;;;17.33;;
13331;SDS011;6735;51.456;12.626;2024-03-06T12:13:14;23.83;;;16.53;;
13331;SDS011;6735;51.456;12.626;2024-03-06T12:15:43;24.73;;;16.37;;
13331;SDS011;6735;51.456;12.626;2024-03-06T12:18:09;26.63;;;16.93;;
13331;SDS011;6735;51.456;12.626;2024-03-06T12:20:35;28.57;;;16.93;;
13331;SDS011;6735;51.456;12.626;2024-03-06T12:23:06;23.37;;;15.57;;
13331;SDS011;6735;51.456;12.626;2024-03-06T12:25:31;27.07;;;15.40;;
13331;SDS011;6735;51.456;12.626;2024-03-06T12:28:05;20.83;;;15.33;;
13331;SDS011;6735;51.456;12.626;2024-03-06T12:30:38;26.53;;;15.17;;
13331;SDS011;6735;51.456;12.626;2024-03-06T12:33:09;20.87;;;15.00;;
13331;SDS011;6735;51.456;12.626;2024-03-06T12:35:39;20.13;;;14.27;;
13331;SDS011;6735;51.456;12.626;2024-03-06T12:38:11;22.57;;;15.03;;
13331;SDS011;6735;51.456;12.626;2024-03-06T12:40:38;20.37;;;14.60;;
13331;SDS011;6735;51.456;12.626;2024-03-06T12:43:04;22.77;;;15.17;;
13331;SDS011;6735;51.456;12.626;2024-03-06T12:45:30;23.13;;;14.63;;
13331;SDS011;6735;51.456;12.626;2024-03-06T12:47:55;18.93;;;14.03;;
13331;SDS011;6735;51.456;12.626;2024-03-06T12:50:21;20.43;;;13.77;;
13331;SDS011;6735;51.456;12.626;2024-03-06T12:52:47;21.87;;;14.20;;
13331;SDS011;6735;51.456;12.626;2024-03-06T12:55:12;20.60;;;14.57;;
13331;SDS011;6735;51.456;12.626;2024-03-06T12:57:39;17.77;;;13.63;;
13331;SDS011;6735;51.456;12.626;2024-03-06T13:00:05;18.43;;;12.90;;
13331;SDS011;6735;51.456;12.626;2024-03-06T13:02:39;21.40;;;13.70;;
13331;SDS011;6735;51.456;12.626;2024-03-06T13:05:04;18.77;;;12.37;;
13331;SDS011;6735;51.456;12.626;2024-03-06T13:07:30;19.47;;;12.67;;
13331;SDS011;6735;51.456;12.626;2024-03-06T13:09:55;16.13;;;11.80;;
13331;SDS011;6735;51.456;12.626;2024-03-06T13:12:21;17.47;;;12.33;;
13331;SDS011;6735;51.456;12.626;2024-03-06T13:14:47;17.33;;;11.70;;
13331;SDS011;6735;51.456;12.626;2024-03-06T13:17:12;17.67;;;12.37;;
13331;SDS011;6735;51.456;12.626;2024-03-06T13:19:38;16.37;;;12.17;;
13331;SDS011;6735;51.456;12.626;2024-03-06T13:22:03;17.97;;;11.33;;
13331;SDS011;6735;51.456;12.626;2024-03-06T13:24:31;14.43;;;10.73;;
13331;SDS011;6735;51.456;12.626;2024-03-06T13:26:58;12.30;;;9.37;;
13331;SDS011;6735;51.456;12.626;2024-03-06T13:29:24;14.27;;;9.90;;
13331;SDS011;6735;51.456;12.626;2024-03-06T13:31:50;14.27;;;8.80;;
13331;SDS011;6735;51.456;12.626;2024-03-06T13:34:15;11.20;;;9.23;;
13331;SDS011;6735;51.456;12.626;2024-03-06T13:36:41;12.17;;;8.67;;
13331;SDS011;6735;51.456;12.626;2024-03-06T13:39:08;12.90;;;8.93;;
13331;SDS011;6735;51.456;12.626;2024-03-06T13:41:34;11.83;;;8.33;;
13331;SDS011;6735;51.456;12.626;2024-03-06T13:43:59;12.27;;;9.30;;
13331;SDS011;6735;51.456;12.626;2024-03-06T13:46:25;12.37;;;8.70;;
13331;SDS011;6735;51.456;12.626;2024-03-06T13:48:50;11.70;;;8.20;;
13331;SDS011;6735;51.456;12.626;2024-03-06T13:51:16;10.97;;;7.93;;
13331;SDS011;6735;51.456;12.626;2024-03-06T13:53:41;15.73;;;7.90;;
13331;SDS011;6735;51.456;12.626;2024-03-06T13:56:07;10.97;;;7.93;;
13331;SDS011;6735;51.456;12.626;2024-03-06T13:58:33;12.30;;;8.23;;
13331;SDS011;6735;51.456;12.626;2024-03-06T14:00:59;10.80;;;7.97;;
13331;SDS011;6735;51.456;12.626;2024-03-06T14:03:24;9.10;;;7.10;;
13331;SDS011;6735;51.456;12.626;2024-03-06T14:05:50;9.03;;;8.10;;
13331;SDS011;6735;51.456;12.626;2024-03-06T14:08:16;11.20;;;7.73;;
13331;SDS011;6735;51.456;12.626;2024-03-06T14:10:42;10.47;;;6.93;;
13331;SDS011;6735;51.456;12.626;2024-03-06T14:13:08;9.63;;;7.70;;
13331;SDS011;6735;51.456;12.626;2024-03-06T14:15:33;12.43;;;7.77;;
13331;SDS011;6735;51.456;12.626;2024-03-06T14:17:59;10.63;;;7.80;;
13331;SDS011;6735;51.456;12.626;2024-03-06T14:20:26;10.47;;;7.30;;
13331;SDS011;6735;51.456;12.626;2024-03-06T14:22:53;11.57;;;8.33;;
13331;SDS011;6735;51.456;12.626;2024-03-06T14:25:18;12.03;;;9.07;;
13331;SDS011;6735;51.456;12.626;2024-03-06T14:27:44;11.13;;;8.53;;
13331;SDS011;6735;51.456;12.626;2024-03-06T14:30:10;12.93;;;7.80;;